sensor_id;sensor_type;location;lat;lon;timestamp;pressure;altitude;pressure_sealevel;temperature;humidity
9721;BME280;4899;42.644;23.366;2023-02-12T00:00:40;95153.50;;;1.46;47.24
9721;BME280;4899;42.644;23.366;2023-02-12T00:03:06;95154.72;;;1.44;47.48
9721;BME280;4899;42.644;23.366;2023-02-12T00:05:32;95170.03;;;1.49;47.55
9721;BME280;4899;42.644;23.366;2023-02-12T00:07:59;95164.97;;;1.49;47.88
9721;BME280;4899;42.644;23.366;2023-02-12T00:10:24;95148.53;;;1.51;47.68
9721;BME280;4899;42.644;23.366;2023-02-12T00:12:52;95167.53;;;1.37;47.80
9721;BME280;4899;42.644;23.366;2023-02-12T00:15:38;95163.75;;;1.51;47.94
9721;BME280;4899;42.644;23.366;2023-02-12T00:18:03;95162.84;;;1.46;47.68
9721;BME280;4899;42.644;23.366;2023-02-12T00:20:29;95171.69;;;1.43;47.08
9721;BME280;4899;42.644;23.366;2023-02-12T00:22:54;95173.38;;;1.38;47.09
9721;BME280;4899;42.644;23.366;2023-02-12T00:25:20;95172.78;;;1.47;47.03
9721;BME280;4899;42.644;23.366;2023-02-12T00:27:45;95164.75;;;1.50;46.81
9721;BME280;4899;42.644;23.366;2023-02-12T00:30:11;95150.19;;;1.46;47.12
9721;BME280;4899;42.644;23.366;2023-02-12T00:32:37;95153.94;;;1.43;47.22
9721;BME280;4899;42.644;23.366;2023-02-12T00:35:03;95149.34;;;1.40;47.35
9721;BME280;4899;42.644;23.366;2023-02-12T00:37:28;95147.75;;;1.51;46.92
9721;BME280;4899;42.644;23.366;2023-02-12T00:39:54;95153.50;;;1.46;47.37
9721;BME280;4899;42.644;23.366;2023-02-12T00:42:19;95147.41;;;1.47;47.00
9721;BME280;4899;42.644;23.366;2023-02-12T00:44:45;95121.44;;;1.40;47.31
9721;BME280;4899;42.644;23.366;2023-02-12T00:47:10;95136.09;;;1.50;47.06
9721;BME280;4899;42.644;23.366;2023-02-12T00:49:35;95149.75;;;1.49;47.61
9721;BME280;4899;42.644;23.366;2023-02-12T00:52:03;95134.03;;;1.35;46.87
9721;BME280;4899;42.644;23.366;2023-02-12T00:54:30;95129.47;;;1.49;47.16
9721;BME280;4899;42.644;23.366;2023-02-12T00:56:56;95124.25;;;1.56;47.13
9721;BME280;4899;42.644;23.366;2023-02-12T00:59:23;95123.50;;;1.72;47.11
9721;BME280;4899;42.644;23.366;2023-02-12T01:01:50;95128.34;;;1.73;46.94
9721;BME280;4899;42.644;23.366;2023-02-12T01:04:16;95118.91;;;1.69;46.25
9721;BME280;4899;42.644;23.366;2023-02-12T01:06:42;95122.34;;;1.63;46.88
9721;BME280;4899;42.644;23.366;2023-02-12T01:09:08;95106.53;;;1.56;46.39
9721;BME280;4899;42.644;23.366;2023-02-12T01:11:33;95131.44;;;1.47;46.93
9721;BME280;4899;42.644;23.366;2023-02-12T01:13:59;95123.91;;;1.35;47.09
9721;BME280;4899;42.644;23.366;2023-02-12T01:16:24;95125.19;;;1.49;46.69
9721;BME280;4899;42.644;23.366;2023-02-12T01:18:51;95119.53;;;1.47;47.15
9721;BME280;4899;42.644;23.366;2023-02-12T01:21:24;95123.06;;;1.46;47.35
9721;BME280;4899;42.644;23.366;2023-02-12T01:23:50;95126.25;;;1.53;47.24
9721;BME280;4899;42.644;23.366;2023-02-12T01:26:17;95132.09;;;1.54;47.18
9721;BME280;4899;42.644;23.366;2023-02-12T01:28:47;95145.53;;;1.54;47.08
9721;BME280;4899;42.644;23.366;2023-02-12T01:31:16;95137.63;;;1.51;47.21
9721;BME280;4899;42.644;23.366;2023-02-12T01:33:42;95137.84;;;1.49;47.75
9721;BME280;4899;42.644;23.366;2023-02-12T01:36:09;95132.78;;;1.49;47.32
9721;BME280;4899;42.644;23.366;2023-02-12T01:38:35;95127.34;;;1.58;47.62
9721;BME280;4899;42.644;23.366;2023-02-12T01:41:22;95135.31;;;1.49;48.06
9721;BME280;4899;42.644;23.366;2023-02-12T01:44:14;95116.94;;;1.42;47.95
9721;BME280;4899;42.644;23.366;2023-02-12T01:46:41;95126.97;;;1.37;47.98
9721;BME280;4899;42.644;23.366;2023-02-12T01:49:16;95108.94;;;1.34;48.43
9721;BME280;4899;42.644;23.366;2023-02-12T01:51:44;95101.00;;;1.30;48.97
9721;BME280;4899;42.644;23.366;2023-02-12T01:54:12;95104.25;;;1.14;48.84
9721;BME280;4899;42.644;23.366;2023-02-12T01:56:39;95084.63;;;1.21;48.76
9721;BME280;4899;42.644;23.366;2023-02-12T01:59:06;95077.00;;;1.21;49.26
9721;BME280;4899;42.644;23.366;2023-02-12T02:01:33;95063.91;;;1.24;48.98
9721;BME280;4899;42.644;23.366;2023-02-12T02:04:01;95092.88;;;1.28;48.78
9721;BME280;4899;42.644;23.366;2023-02-12T02:06:43;95095.78;;;1.37;48.85
9721;BME280;4899;42.644;23.366;2023-02-12T02:09:10;95088.66;;;1.34;49.12
9721;BME280;4899;42.644;23.366;2023-02-12T02:11:37;95095.41;;;1.28;49.44
9721;BME280;4899;42.644;23.366;2023-02-12T02:14:22;95095.75;;;1.20;49.04
9721;BME280;4899;42.644;23.366;2023-02-12T02:30:13;95129.03;;;1.12;50.29
9721;BME280;4899;42.644;23.366;2023-02-12T02:32:55;95092.03;;;1.11;50.77
9721;BME280;4899;42.644;23.366;2023-02-12T02:38:30;95092.25;;;1.09;50.51
9721;BME280;4899;42.644;23.366;2023-02-12T02:41:09;95087.44;;;1.08;50.87
9721;BME280;4899;42.644;23.366;2023-02-12T02:43:47;95079.59;;;1.09;51.17
9721;BME280;4899;42.644;23.366;2023-02-12T02:48:50;95099.25;;;1.02;51.59
9721;BME280;4899;42.644;23.366;2023-02-12T02:51:50;95111.56;;;0.99;51.76
9721;BME280;4899;42.644;23.366;2023-02-12T02:54:43;95098.00;;;1.05;51.61
9721;BME280;4899;42.644;23.366;2023-02-12T02:57:37;95110.94;;;1.20;51.71
9721;BME280;4899;42.644;23.366;2023-02-12T03:00:17;95111.09;;;1.13;51.77
9721;BME280;4899;42.644;23.366;2023-02-12T03:02:53;95111.16;;;1.18;51.97
9721;BME280;4899;42.644;23.366;2023-02-12T03:05:28;95114.47;;;1.19;51.78
9721;BME280;4899;42.644;23.366;2023-02-12T03:08:06;95116.31;;;1.23;52.13
9721;BME280;4899;42.644;23.366;2023-02-12T03:10:41;95113.13;;;1.28;52.08
9721;BME280;4899;42.644;23.366;2023-02-12T03:13:31;95101.22;;;1.57;51.60
9721;BME280;4899;42.644;23.366;2023-02-12T03:16:28;95093.84;;;1.56;52.17
9721;BME280;4899;42.644;23.366;2023-02-12T03:19:03;95098.84;;;1.50;51.60
9721;BME280;4899;42.644;23.366;2023-02-12T03:21:44;95097.84;;;1.51;51.64
9721;BME280;4899;42.644;23.366;2023-02-12T03:24:25;95088.69;;;1.50;51.48
9721;BME280;4899;42.644;23.366;2023-02-12T03:29:33;95091.50;;;1.09;53.43
9721;BME280;4899;42.644;23.366;2023-02-12T03:32:03;95089.41;;;1.06;53.25
9721;BME280;4899;42.644;23.366;2023-02-12T03:37:09;95089.34;;;1.01;54.31
9721;BME280;4899;42.644;23.366;2023-02-12T03:48:24;95095.72;;;0.91;55.44
9721;BME280;4899;42.644;23.366;2023-02-12T03:53:17;95089.66;;;1.04;55.32
9721;BME280;4899;42.644;23.366;2023-02-12T03:55:45;95085.59;;;1.20;54.72
9721;BME280;4899;42.644;23.366;2023-02-12T03:58:17;95085.75;;;1.13;54.96
9721;BME280;4899;42.644;23.366;2023-02-12T04:00:45;95083.28;;;1.02;55.23
9721;BME280;4899;42.644;23.366;2023-02-12T04:03:11;95089.72;;;1.09;55.36
9721;BME280;4899;42.644;23.366;2023-02-12T04:05:36;95075.22;;;1.05;55.31
9721;BME280;4899;42.644;23.366;2023-02-12T04:08:05;95079.81;;;1.08;55.37
9721;BME280;4899;42.644;23.366;2023-02-12T04:10:41;95070.25;;;0.98;55.69
9721;BME280;4899;42.644;23.366;2023-02-12T04:13:15;95081.53;;;0.90;56.69
9721;BME280;4899;42.644;23.366;2023-02-12T04:15:50;95098.13;;;0.98;56.17
9721;BME280;4899;42.644;23.366;2023-02-12T04:18:23;95082.75;;;0.88;56.73
9721;BME280;4899;42.644;23.366;2023-02-12T04:21:43;95088.56;;;0.88;56.94
9721;BME280;4899;42.644;23.366;2023-02-12T04:28:55;95110.97;;;0.80;57.82
9721;BME280;4899;42.644;23.366;2023-02-12T04:31:29;95093.47;;;0.78;58.16
9721;BME280;4899;42.644;23.366;2023-02-12T04:34:08;95100.16;;;0.73;59.03
9721;BME280;4899;42.644;23.366;2023-02-12T04:36:44;95100.81;;;0.80;58.57
9721;BME280;4899;42.644;23.366;2023-02-12T04:39:16;95098.63;;;0.72;58.74
9721;BME280;4899;42.644;23.366;2023-02-12T04:41:43;95109.41;;;0.67;59.25
9721;BME280;4899;42.644;23.366;2023-02-12T04:44:39;95093.13;;;0.63;59.61
9721;BME280;4899;42.644;23.366;2023-02-12T04:47:05;95098.75;;;0.65;59.26
9721;BME280;4899;42.644;23.366;2023-02-12T04:49:30;95106.56;;;0.64;59.22
9721;BME280;4899;42.644;23.366;2023-02-12T04:51:56;95117.78;;;0.79;58.61
9721;BME280;4899;42.644;23.366;2023-02-12T04:54:22;95109.53;;;0.72;59.61
9721;BME280;4899;42.644;23.366;2023-02-12T04:56:48;95120.41;;;0.73;59.98
9721;BME280;4899;42.644;23.366;2023-02-12T04:59:14;95121.59;;;0.93;58.68
9721;BME280;4899;42.644;23.366;2023-02-12T05:01:40;95108.97;;;0.82;59.37
9721;BME280;4899;42.644;23.366;2023-02-12T05:04:07;95114.16;;;0.64;60.22
9721;BME280;4899;42.644;23.366;2023-02-12T05:06:35;95114.59;;;0.60;59.81
9721;BME280;4899;42.644;23.366;2023-02-12T05:09:00;95125.81;;;0.65;60.13
9721;BME280;4899;42.644;23.366;2023-02-12T05:11:26;95117.47;;;0.64;60.49
9721;BME280;4899;42.644;23.366;2023-02-12T05:13:52;95119.22;;;0.64;60.41
9721;BME280;4899;42.644;23.366;2023-02-12T05:16:19;95112.94;;;0.66;60.53
9721;BME280;4899;42.644;23.366;2023-02-12T05:18:45;95111.31;;;0.60;60.96
9721;BME280;4899;42.644;23.366;2023-02-12T05:21:11;95127.91;;;0.79;59.13
9721;BME280;4899;42.644;23.366;2023-02-12T05:23:38;95131.81;;;0.99;58.22
9721;BME280;4899;42.644;23.366;2023-02-12T05:26:06;95147.00;;;1.10;57.90
9721;BME280;4899;42.644;23.366;2023-02-12T05:28:33;95149.25;;;1.35;58.11
9721;BME280;4899;42.644;23.366;2023-02-12T05:31:00;95150.25;;;1.34;60.19
9721;BME280;4899;42.644;23.366;2023-02-12T05:33:26;95148.19;;;1.19;61.93
9721;BME280;4899;42.644;23.366;2023-02-12T05:35:51;95197.47;;;1.00;62.82
9721;BME280;4899;42.644;23.366;2023-02-12T05:38:17;95156.72;;;0.90;63.11
9721;BME280;4899;42.644;23.366;2023-02-12T05:40:42;95160.56;;;0.92;63.11
9721;BME280;4899;42.644;23.366;2023-02-12T05:43:08;95160.56;;;0.92;64.72
9721;BME280;4899;42.644;23.366;2023-02-12T05:45:33;95169.06;;;0.86;66.06
9721;BME280;4899;42.644;23.366;2023-02-12T05:47:59;95157.31;;;0.80;67.44
9721;BME280;4899;42.644;23.366;2023-02-12T05:50:25;95166.97;;;0.83;68.77
9721;BME280;4899;42.644;23.366;2023-02-12T05:52:50;95165.66;;;0.69;70.49
9721;BME280;4899;42.644;23.366;2023-02-12T05:55:16;95159.59;;;0.70;72.27
9721;BME280;4899;42.644;23.366;2023-02-12T05:57:41;95166.44;;;0.70;73.32
9721;BME280;4899;42.644;23.366;2023-02-12T06:00:08;95177.13;;;0.60;76.75
9721;BME280;4899;42.644;23.366;2023-02-12T06:02:34;95188.13;;;0.66;77.73
9721;BME280;4899;42.644;23.366;2023-02-12T06:04:59;95187.44;;;0.70;78.56
9721;BME280;4899;42.644;23.366;2023-02-12T06:07:25;95184.06;;;0.76;79.04
9721;BME280;4899;42.644;23.366;2023-02-12T06:09:50;95180.53;;;0.54;83.31
9721;BME280;4899;42.644;23.366;2023-02-12T06:12:16;95188.13;;;0.54;85.21
9721;BME280;4899;42.644;23.366;2023-02-12T06:14:42;95187.44;;;0.70;85.25
9721;BME280;4899;42.644;23.366;2023-02-12T06:17:07;95203.09;;;0.67;89.83
9721;BME280;4899;42.644;23.366;2023-02-12T06:19:33;95158.97;;;0.51;94.48
9721;BME280;4899;42.644;23.366;2023-02-12T06:21:59;95200.66;;;0.49;95.74
9721;BME280;4899;42.644;23.366;2023-02-12T06:24:24;95196.72;;;0.53;98.64
9721;BME280;4899;42.644;23.366;2023-02-12T06:26:50;95195.72;;;0.54;99.17
9721;BME280;4899;42.644;23.366;2023-02-12T06:29:17;95192.50;;;0.47;100.00
9721;BME280;4899;42.644;23.366;2023-02-12T06:31:43;95180.28;;;0.44;100.00
9721;BME280;4899;42.644;23.366;2023-02-12T06:34:10;95185.06;;;0.52;100.00
9721;BME280;4899;42.644;23.366;2023-02-12T06:36:38;95201.09;;;0.46;100.00
9721;BME280;4899;42.644;23.366;2023-02-12T06:39:05;95183.59;;;0.44;100.00
9721;BME280;4899;42.644;23.366;2023-02-12T06:41:30;95183.69;;;0.49;100.00
9721;BME280;4899;42.644;23.366;2023-02-12T06:43:56;95188.22;;;0.36;100.00
9721;BME280;4899;42.644;23.366;2023-02-12T06:46:21;95189.09;;;0.41;100.00
9721;BME280;4899;42.644;23.366;2023-02-12T06:48:47;95187.78;;;0.27;100.00
9721;BME280;4899;42.644;23.366;2023-02-12T06:51:17;95179.53;;;0.32;100.00
9721;BME280;4899;42.644;23.366;2023-02-12T06:53:43;95180.63;;;0.36;100.00
9721;BME280;4899;42.644;23.366;2023-02-12T06:56:11;95193.28;;;0.36;100.00
9721;BME280;4899;42.644;23.366;2023-02-12T06:58:39;95199.00;;;0.31;100.00
9721;BME280;4899;42.644;23.366;2023-02-12T07:01:13;95201.09;;;0.34;100.00
9721;BME280;4899;42.644;23.366;2023-02-12T07:03:46;95200.00;;;0.42;100.00
9721;BME280;4899;42.644;23.366;2023-02-12T07:06:12;95203.06;;;0.44;100.00
9721;BME280;4899;42.644;23.366;2023-02-12T07:08:38;95207.25;;;0.38;100.00
9721;BME280;4899;42.644;23.366;2023-02-12T07:11:04;95196.56;;;0.36;100.00
9721;BME280;4899;42.644;23.366;2023-02-12T07:13:30;95194.06;;;0.36;100.00
9721;BME280;4899;42.644;23.366;2023-02-12T07:16:05;95198.69;;;0.51;100.00
9721;BME280;4899;42.644;23.366;2023-02-12T07:18:32;95199.13;;;0.59;100.00
9721;BME280;4899;42.644;23.366;2023-02-12T07:21:02;95199.13;;;0.59;100.00
9721;BME280;4899;42.644;23.366;2023-02-12T07:23:29;95194.50;;;0.56;100.00
9721;BME280;4899;42.644;23.366;2023-02-12T07:26:14;95196.59;;;0.71;100.00
9721;BME280;4899;42.644;23.366;2023-02-12T07:28:40;95201.41;;;0.96;100.00
9721;BME280;4899;42.644;23.366;2023-02-12T07:31:07;95203.19;;;0.96;100.00
9721;BME280;4899;42.644;23.366;2023-02-12T07:33:34;95201.00;;;0.87;100.00
9721;BME280;4899;42.644;23.366;2023-02-12T07:36:01;95207.59;;;0.88;100.00
9721;BME280;4899;42.644;23.366;2023-02-12T07:38:27;95210.47;;;0.80;100.00
9721;BME280;4899;42.644;23.366;2023-02-12T07:40:53;95217.38;;;0.73;100.00
9721;BME280;4899;42.644;23.366;2023-02-12T07:43:19;95213.88;;;0.63;100.00
9721;BME280;4899;42.644;23.366;2023-02-12T07:45:44;95215.84;;;0.49;100.00
9721;BME280;4899;42.644;23.366;2023-02-12T07:48:10;95212.66;;;0.53;100.00
9721;BME280;4899;42.644;23.366;2023-02-12T07:50:36;95215.84;;;0.49;100.00
9721;BME280;4899;42.644;23.366;2023-02-12T07:53:02;95215.63;;;0.50;100.00
9721;BME280;4899;42.644;23.366;2023-02-12T07:55:27;95212.63;;;0.42;100.00
9721;BME280;4899;42.644;23.366;2023-02-12T07:57:53;95216.72;;;0.43;100.00
9721;BME280;4899;42.644;23.366;2023-02-12T08:00:18;95215.59;;;0.39;100.00
9721;BME280;4899;42.644;23.366;2023-02-12T08:02:50;95213.63;;;0.41;100.00
9721;BME280;4899;42.644;23.366;2023-02-12T08:05:16;95229.81;;;0.40;100.00
9721;BME280;4899;42.644;23.366;2023-02-12T08:07:41;95222.31;;;0.33;100.00
9721;BME280;4899;42.644;23.366;2023-02-12T08:10:07;95205.59;;;0.32;100.00
9721;BME280;4899;42.644;23.366;2023-02-12T08:12:33;95224.41;;;0.36;100.00
9721;BME280;4899;42.644;23.366;2023-02-12T08:14:58;95213.31;;;0.37;100.00
9721;BME280;4899;42.644;23.366;2023-02-12T08:17:24;95230.78;;;0.39;100.00
9721;BME280;4899;42.644;23.366;2023-02-12T08:19:49;95219.56;;;0.35;100.00
9721;BME280;4899;42.644;23.366;2023-02-12T08:22:14;95230.69;;;0.34;100.00
9721;BME280;4899;42.644;23.366;2023-02-12T08:24:40;95228.25;;;0.27;100.00
9721;BME280;4899;42.644;23.366;2023-02-12T08:27:06;95228.28;;;0.50;100.00
9721;BME280;4899;42.644;23.366;2023-02-12T08:29:32;95253.94;;;0.54;100.00
9721;BME280;4899;42.644;23.366;2023-02-12T08:32:02;95242.34;;;0.46;100.00
9721;BME280;4899;42.644;23.366;2023-02-12T08:34:30;95242.44;;;0.40;100.00
9721;BME280;4899;42.644;23.366;2023-02-12T08:36:56;95246.94;;;0.26;100.00
9721;BME280;4899;42.644;23.366;2023-02-12T08:39:23;95251.84;;;0.51;100.00
9721;BME280;4899;42.644;23.366;2023-02-12T08:41:50;95253.56;;;0.39;100.00
9721;BME280;4899;42.644;23.366;2023-02-12T08:44:16;95259.28;;;0.46;100.00
9721;BME280;4899;42.644;23.366;2023-02-12T08:46:48;95262.94;;;0.50;100.00
9721;BME280;4899;42.644;23.366;2023-02-12T08:49:18;95265.59;;;0.55;100.00
9721;BME280;4899;42.644;23.366;2023-02-12T08:51:46;95267.81;;;0.63;100.00
9721;BME280;4899;42.644;23.366;2023-02-12T08:54:16;95269.78;;;0.61;100.00
9721;BME280;4899;42.644;23.366;2023-02-12T08:56:42;95270.13;;;0.65;100.00
9721;BME280;4899;42.644;23.366;2023-02-12T08:59:10;95280.91;;;0.72;100.00
9721;BME280;4899;42.644;23.366;2023-02-12T09:01:36;95275.22;;;0.76;100.00
9721;BME280;4899;42.644;23.366;2023-02-12T09:04:03;95269.94;;;0.78;100.00
9721;BME280;4899;42.644;23.366;2023-02-12T09:06:31;95265.50;;;0.73;100.00
9721;BME280;4899;42.644;23.366;2023-02-12T09:08:57;95272.22;;;0.79;100.00
9721;BME280;4899;42.644;23.366;2023-02-12T09:11:25;95281.81;;;0.89;100.00
9721;BME280;4899;42.644;23.366;2023-02-12T09:13:56;95278.25;;;0.55;100.00
9721;BME280;4899;42.644;23.366;2023-02-12T09:16:24;95281.34;;;0.57;100.00
9721;BME280;4899;42.644;23.366;2023-02-12T09:18:49;95275.16;;;0.53;100.00
9721;BME280;4899;42.644;23.366;2023-02-12T09:21:15;95291.25;;;0.58;100.00
9721;BME280;4899;42.644;23.366;2023-02-12T09:23:42;95290.38;;;0.65;100.00
9721;BME280;4899;42.644;23.366;2023-02-12T09:26:10;95301.94;;;0.72;100.00
9721;BME280;4899;42.644;23.366;2023-02-12T09:28:36;95306.91;;;0.90;100.00
9721;BME280;4899;42.644;23.366;2023-02-12T09:31:06;95300.84;;;0.91;100.00
9721;BME280;4899;42.644;23.366;2023-02-12T09:33:32;95301.50;;;0.99;100.00
9721;BME280;4899;42.644;23.366;2023-02-12T09:36:02;95295.59;;;1.05;100.00
9721;BME280;4899;42.644;23.366;2023-02-12T09:38:28;95305.72;;;1.05;100.00
9721;BME280;4899;42.644;23.366;2023-02-12T09:41:33;95307.47;;;0.92;100.00
9721;BME280;4899;42.644;23.366;2023-02-12T09:46:31;95293.34;;;0.61;100.00
9721;BME280;4899;42.644;23.366;2023-02-12T09:51:23;95301.25;;;0.65;100.00
9721;BME280;4899;42.644;23.366;2023-02-12T09:54:04;95300.31;;;0.78;100.00
9721;BME280;4899;42.644;23.366;2023-02-12T09:56:33;95292.59;;;0.84;100.00
9721;BME280;4899;42.644;23.366;2023-02-12T09:59:04;95318.38;;;1.05;100.00
9721;BME280;4899;42.644;23.366;2023-02-12T10:01:30;95301.31;;;1.12;100.00
9721;BME280;4899;42.644;23.366;2023-02-12T10:03:57;95295.25;;;1.25;100.00
9721;BME280;4899;42.644;23.366;2023-02-12T10:06:29;95306.81;;;1.20;100.00
9721;BME280;4899;42.644;23.366;2023-02-12T10:17:39;95315.50;;;1.60;100.00
9721;BME280;4899;42.644;23.366;2023-02-12T10:25:43;95310.16;;;1.84;100.00
9721;BME280;4899;42.644;23.366;2023-02-12T10:28:16;95319.38;;;2.02;100.00
9721;BME280;4899;42.644;23.366;2023-02-12T10:30:56;95311.31;;;2.05;100.00
9721;BME280;4899;42.644;23.366;2023-02-12T10:33:34;95326.22;;;2.02;100.00
9721;BME280;4899;42.644;23.366;2023-02-12T10:39:00;95317.59;;;1.63;100.00
9721;BME280;4899;42.644;23.366;2023-02-12T10:41:29;95311.97;;;1.61;100.00
9721;BME280;4899;42.644;23.366;2023-02-12T10:43:56;95321.13;;;1.50;100.00
9721;BME280;4899;42.644;23.366;2023-02-12T10:46:22;95314.63;;;1.42;100.00
9721;BME280;4899;42.644;23.366;2023-02-12T10:48:51;95309.88;;;1.58;100.00
9721;BME280;4899;42.644;23.366;2023-02-12T10:59:38;95316.00;;;2.42;100.00
9721;BME280;4899;42.644;23.366;2023-02-12T11:02:14;95332.50;;;2.56;100.00
9721;BME280;4899;42.644;23.366;2023-02-12T11:04:43;95321.88;;;2.59;100.00
9721;BME280;4899;42.644;23.366;2023-02-12T11:07:08;95321.84;;;2.26;100.00
9721;BME280;4899;42.644;23.366;2023-02-12T11:09:39;95316.53;;;2.27;100.00
9721;BME280;4899;42.644;23.366;2023-02-12T11:14:56;95309.84;;;2.09;100.00
9721;BME280;4899;42.644;23.366;2023-02-12T11:17:43;95310.75;;;2.32;100.00
9721;BME280;4899;42.644;23.366;2023-02-12T11:22:54;95314.44;;;2.69;100.00
9721;BME280;4899;42.644;23.366;2023-02-12T11:25:20;95311.13;;;2.86;100.00
9721;BME280;4899;42.644;23.366;2023-02-12T11:30:50;95292.97;;;2.77;100.00
9721;BME280;4899;42.644;23.366;2023-02-12T11:35:50;95312.28;;;2.95;100.00
9721;BME280;4899;42.644;23.366;2023-02-12T11:38:23;95302.44;;;2.82;100.00
9721;BME280;4899;42.644;23.366;2023-02-12T11:40:50;95304.44;;;2.80;100.00
9721;BME280;4899;42.644;23.366;2023-02-12T11:43:18;95294.34;;;2.85;100.00
9721;BME280;4899;42.644;23.366;2023-02-12T11:45:46;95319.13;;;3.11;100.00
9721;BME280;4899;42.644;23.366;2023-02-12T11:48:23;95310.81;;;3.16;100.00
9721;BME280;4899;42.644;23.366;2023-02-12T11:50:52;95311.66;;;3.21;100.00
9721;BME280;4899;42.644;23.366;2023-02-12T11:53:31;95324.22;;;3.11;100.00
9721;BME280;4899;42.644;23.366;2023-02-12T11:56:10;95314.19;;;3.21;100.00
9721;BME280;4899;42.644;23.366;2023-02-12T11:58:36;95314.47;;;3.80;100.00
9721;BME280;4899;42.644;23.366;2023-02-12T12:01:24;95324.06;;;3.73;100.00
9721;BME280;4899;42.644;23.366;2023-02-12T12:04:13;95316.09;;;3.91;100.00
9721;BME280;4899;42.644;23.366;2023-02-12T12:06:45;95333.91;;;3.91;100.00
9721;BME280;4899;42.644;23.366;2023-02-12T12:09:31;95317.13;;;3.90;97.73
9721;BME280;4899;42.644;23.366;2023-02-12T12:12:10;95315.56;;;3.89;100.00
9721;BME280;4899;42.644;23.366;2023-02-12T12:20:31;95319.81;;;3.62;100.00
9721;BME280;4899;42.644;23.366;2023-02-12T12:23:09;95317.97;;;3.35;100.00
9721;BME280;4899;42.644;23.366;2023-02-12T12:25:46;95324.22;;;3.28;100.00
9721;BME280;4899;42.644;23.366;2023-02-12T12:36:46;95332.44;;;3.52;100.00
9721;BME280;4899;42.644;23.366;2023-02-12T12:55:42;95347.03;;;3.23;100.00
9721;BME280;4899;42.644;23.366;2023-02-12T12:58:22;95348.72;;;3.17;100.00
9721;BME280;4899;42.644;23.366;2023-02-12T13:09:02;95350.66;;;3.65;99.15
9721;BME280;4899;42.644;23.366;2023-02-12T13:21:57;95359.13;;;3.32;100.00
9721;BME280;4899;42.644;23.366;2023-02-12T13:28:12;95364.94;;;2.83;100.00
9721;BME280;4899;42.644;23.366;2023-02-12T13:30:46;95356.94;;;2.91;100.00
9721;BME280;4899;42.644;23.366;2023-02-12T13:35:51;95358.78;;;2.78;100.00
9721;BME280;4899;42.644;23.366;2023-02-12T13:38:23;95361.19;;;2.85;100.00
9721;BME280;4899;42.644;23.366;2023-02-12T13:40:58;95358.31;;;2.82;100.00
9721;BME280;4899;42.644;23.366;2023-02-12T13:51:49;95364.75;;;2.72;100.00
9721;BME280;4899;42.644;23.366;2023-02-12T13:57:20;95379.81;;;2.91;100.00
9721;BME280;4899;42.644;23.366;2023-02-12T14:04:55;95387.31;;;2.69;100.00
9721;BME280;4899;42.644;23.366;2023-02-12T14:07:40;95386.22;;;2.65;100.00
9721;BME280;4899;42.644;23.366;2023-02-12T14:10:06;95397.16;;;2.65;100.00
9721;BME280;4899;42.644;23.366;2023-02-12T14:12:35;95392.28;;;2.75;100.00
9721;BME280;4899;42.644;23.366;2023-02-12T14:15:07;95404.47;;;3.07;100.00
9721;BME280;4899;42.644;23.366;2023-02-12T14:27:44;95418.19;;;3.06;100.00
9721;BME280;4899;42.644;23.366;2023-02-12T14:37:51;95410.59;;;2.77;100.00
9721;BME280;4899;42.644;23.366;2023-02-12T14:42:58;95422.38;;;2.84;100.00
9721;BME280;4899;42.644;23.366;2023-02-12T14:45:36;95430.50;;;2.69;100.00
9721;BME280;4899;42.644;23.366;2023-02-12T14:48:03;95434.72;;;2.63;100.00
9721;BME280;4899;42.644;23.366;2023-02-12T14:50:36;95442.09;;;2.76;100.00
9721;BME280;4899;42.644;23.366;2023-02-12T14:53:06;95440.63;;;2.81;100.00
9721;BME280;4899;42.644;23.366;2023-02-12T14:55:39;95441.53;;;2.74;100.00
9721;BME280;4899;42.644;23.366;2023-02-12T14:58:17;95450.03;;;2.68;100.00
9721;BME280;4899;42.644;23.366;2023-02-12T15:00:45;95466.75;;;2.64;100.00
9721;BME280;4899;42.644;23.366;2023-02-12T15:08:30;95471.25;;;2.74;100.00
9721;BME280;4899;42.644;23.366;2023-02-12T15:13:42;95475.91;;;2.65;100.00
9721;BME280;4899;42.644;23.366;2023-02-12T15:16:30;95473.81;;;2.62;100.00
9721;BME280;4899;42.644;23.366;2023-02-12T15:27:42;95514.94;;;2.88;100.00
9721;BME280;4899;42.644;23.366;2023-02-12T15:30:18;95520.09;;;3.04;100.00
9721;BME280;4899;42.644;23.366;2023-02-12T15:32:44;95522.09;;;3.02;100.00
9721;BME280;4899;42.644;23.366;2023-02-12T15:37:49;95535.09;;;3.06;100.00
9721;BME280;4899;42.644;23.366;2023-02-12T15:40:15;95530.38;;;2.98;100.00
9721;BME280;4899;42.644;23.366;2023-02-12T15:42:54;95529.63;;;2.86;100.00
9721;BME280;4899;42.644;23.366;2023-02-12T15:45:24;95540.41;;;2.64;100.00
9721;BME280;4899;42.644;23.366;2023-02-12T15:50:33;95531.25;;;2.40;100.00
9721;BME280;4899;42.644;23.366;2023-02-12T15:53:00;95535.44;;;2.46;100.00
9721;BME280;4899;42.644;23.366;2023-02-12T15:55:31;95541.44;;;2.52;100.00
9721;BME280;4899;42.644;23.366;2023-02-12T15:57:59;95538.66;;;2.41;100.00
9721;BME280;4899;42.644;23.366;2023-02-12T16:00:34;95540.53;;;2.46;100.00
9721;BME280;4899;42.644;23.366;2023-02-12T16:03:01;95539.91;;;2.27;100.00
9721;BME280;4899;42.644;23.366;2023-02-12T16:05:27;95557.53;;;2.34;100.00
9721;BME280;4899;42.644;23.366;2023-02-12T16:07:53;95555.78;;;2.34;100.00
9721;BME280;4899;42.644;23.366;2023-02-12T16:10:21;95571.34;;;2.50;100.00
9721;BME280;4899;42.644;23.366;2023-02-12T16:12:48;95562.72;;;2.39;100.00
9721;BME280;4899;42.644;23.366;2023-02-12T16:15:31;95560.31;;;2.32;100.00
9721;BME280;4899;42.644;23.366;2023-02-12T16:17:58;95558.31;;;2.34;100.00
9721;BME280;4899;42.644;23.366;2023-02-12T16:20:29;95582.81;;;2.40;100.00
9721;BME280;4899;42.644;23.366;2023-02-12T16:22:55;95591.53;;;2.44;100.00
9721;BME280;4899;42.644;23.366;2023-02-12T16:27:59;95597.84;;;2.30;100.00
9721;BME280;4899;42.644;23.366;2023-02-12T16:32:55;95607.81;;;1.90;100.00
9721;BME280;4899;42.644;23.366;2023-02-12T16:35:25;95615.78;;;2.05;100.00
9721;BME280;4899;42.644;23.366;2023-02-12T16:37:56;95618.19;;;1.89;100.00
9721;BME280;4899;42.644;23.366;2023-02-12T16:40:29;95612.88;;;1.90;100.00
9721;BME280;4899;42.644;23.366;2023-02-12T16:42:57;95612.72;;;2.03;100.00
9721;BME280;4899;42.644;23.366;2023-02-12T16:47:50;95615.00;;;1.93;100.00
9721;BME280;4899;42.644;23.366;2023-02-12T16:50:16;95626.56;;;1.89;100.00
9721;BME280;4899;42.644;23.366;2023-02-12T16:52:43;95616.47;;;1.71;100.00